X  Schließen METAR Luftfahrt Wetterdaten        LGTS Thessaloniki Macedonia International
Temperatur
11°C Temperatur
11°C Taupunkt
100% Feuchtigkeit



Wind
4 KM/S
2 MPS
1 M/S
2 KTS



-1°
VRB
Aktuelle Wetterlage

Partly Cloudy Teilweise bewölkt
Luftdruck 1011 (hPa) - 29.85 (inHg)
Sichtweite 5 (Meile) - 8 (Km)
Flughafen
Flughafen Code LGTS

Position : Thessaloniki Macedonia International
Entfernung: 85 (Km)

Metar:
METAR LGTS 020050Z VRB02KT 8000 SCT005 SCT020 11/11 Q1011 NOSIG

Zeit: 02-03-2024 02:50 EET